createdAt,value
2018-07-22T00:01:41.617Z,16.50
2018-07-22T00:04:09.809Z,16.50
2018-07-22T00:06:38.029Z,16.40
2018-07-22T00:09:09.005Z,16.40
2018-07-22T00:11:37.201Z,16.40
2018-07-22T00:14:05.697Z,16.40
2018-07-22T00:16:33.854Z,16.40
2018-07-22T00:19:02.058Z,16.40
2018-07-22T00:21:30.400Z,16.40
2018-07-22T00:23:58.605Z,16.40
2018-07-22T00:26:26.813Z,16.40
2018-07-22T00:28:55.025Z,16.40
2018-07-22T00:31:23.219Z,16.40
2018-07-22T00:33:51.425Z,16.40
2018-07-22T00:36:19.622Z,16.40
2018-07-22T00:38:47.812Z,16.40
2018-07-22T00:41:16.030Z,16.40
2018-07-22T00:43:44.226Z,16.40
2018-07-22T00:46:12.446Z,16.40
2018-07-22T00:48:40.636Z,16.40
2018-07-22T00:51:08.818Z,16.40
2018-07-22T00:53:37.009Z,16.30
2018-07-22T00:56:05.214Z,16.30
2018-07-22T00:58:33.402Z,16.40
2018-07-22T01:01:01.597Z,16.30
2018-07-22T01:03:29.776Z,16.30
2018-07-22T01:05:57.979Z,16.30
2018-07-22T01:08:26.257Z,16.30
2018-07-22T01:10:54.450Z,16.40
2018-07-22T01:13:22.655Z,16.40
2018-07-22T01:15:50.861Z,16.40
2018-07-22T01:18:19.059Z,16.30
2018-07-22T01:20:47.246Z,16.30
2018-07-22T01:23:15.436Z,16.40
2018-07-22T01:25:43.617Z,16.30
2018-07-22T01:28:11.811Z,16.40
2018-07-22T01:30:40.000Z,16.40
2018-07-22T01:33:08.188Z,16.40
2018-07-22T01:35:36.392Z,16.40
2018-07-22T01:38:04.585Z,16.30
2018-07-22T01:40:32.775Z,16.40
2018-07-22T01:43:00.968Z,16.40
2018-07-22T01:45:29.156Z,16.40
2018-07-22T01:47:57.349Z,16.40
2018-07-22T01:50:25.540Z,16.40
2018-07-22T01:52:53.733Z,16.40
2018-07-22T01:55:21.935Z,16.40
2018-07-22T01:57:50.120Z,16.40
2018-07-22T02:00:18.317Z,16.30
2018-07-22T02:02:46.522Z,16.40
2018-07-22T02:05:14.722Z,16.40
2018-07-22T02:07:42.948Z,16.40
2018-07-22T02:10:11.145Z,16.40
2018-07-22T02:12:39.329Z,16.30
2018-07-22T02:15:07.670Z,16.30
2018-07-22T02:17:35.857Z,16.40
2018-07-22T02:20:04.389Z,16.40
2018-07-22T02:22:32.593Z,16.40
2018-07-22T02:25:00.780Z,16.40
2018-07-22T02:27:28.977Z,16.40
2018-07-22T02:29:57.157Z,16.40
2018-07-22T02:32:25.348Z,16.40
2018-07-22T02:34:53.536Z,16.40
2018-07-22T02:37:21.733Z,16.40
2018-07-22T02:39:49.925Z,16.40
2018-07-22T02:42:18.121Z,16.40
2018-07-22T02:44:46.325Z,16.40
2018-07-22T02:47:14.503Z,16.40
2018-07-22T02:49:42.701Z,16.40
2018-07-22T02:52:11.045Z,16.50
2018-07-22T02:54:39.238Z,16.40
2018-07-22T02:57:08.174Z,16.40
2018-07-22T03:02:04.349Z,16.40
2018-07-22T03:04:32.547Z,16.40
2018-07-22T03:07:00.742Z,16.40
2018-07-22T03:09:28.933Z,16.40
2018-07-22T03:11:57.135Z,16.40
2018-07-22T03:14:25.430Z,16.40
2018-07-22T03:16:53.625Z,16.40
2018-07-22T03:19:21.825Z,16.40
2018-07-22T03:21:50.021Z,16.40
2018-07-22T03:24:18.222Z,16.40
2018-07-22T03:26:46.458Z,16.40
2018-07-22T03:29:14.640Z,16.40
2018-07-22T03:31:42.829Z,16.40
2018-07-22T03:36:39.097Z,16.40
2018-07-22T03:39:09.401Z,16.40
2018-07-22T03:41:37.598Z,16.40
2018-07-22T03:44:05.841Z,16.40
2018-07-22T03:46:34.250Z,16.40
2018-07-22T03:49:02.614Z,16.40
2018-07-22T03:51:30.792Z,16.40
2018-07-22T03:53:59.013Z,16.40
2018-07-22T03:56:27.202Z,16.40
2018-07-22T03:58:55.409Z,16.40
2018-07-22T04:01:23.593Z,16.40
2018-07-22T04:03:51.821Z,16.40
2018-07-22T04:06:20.044Z,16.40
2018-07-22T04:08:48.282Z,16.40
2018-07-22T04:11:16.530Z,16.40
2018-07-22T04:13:44.734Z,16.40
2018-07-22T04:16:12.932Z,16.50
2018-07-22T04:18:45.394Z,16.50
2018-07-22T04:21:13.590Z,16.40
2018-07-22T04:23:41.789Z,16.50
2018-07-22T04:26:09.986Z,16.50
2018-07-22T04:28:38.182Z,16.50
2018-07-22T04:31:06.428Z,16.50
2018-07-22T04:33:34.645Z,16.50
2018-07-22T04:36:02.955Z,16.40
2018-07-22T04:38:31.157Z,16.50
2018-07-22T04:40:59.430Z,16.50
2018-07-22T04:43:27.565Z,16.50
2018-07-22T04:45:55.759Z,16.50
2018-07-22T04:48:23.964Z,16.60
2018-07-22T04:50:52.157Z,16.60
2018-07-22T04:53:20.357Z,16.60
2018-07-22T04:55:48.550Z,16.60
2018-07-22T04:58:16.742Z,16.60
2018-07-22T05:00:44.943Z,16.70
2018-07-22T05:03:13.138Z,16.70
2018-07-22T05:05:41.336Z,16.70
2018-07-22T05:08:09.529Z,16.70
2018-07-22T05:10:37.724Z,16.80
2018-07-22T05:13:06.133Z,16.80
2018-07-22T05:15:34.325Z,16.80
2018-07-22T05:18:02.523Z,16.80
2018-07-22T05:20:30.730Z,16.80
2018-07-22T05:22:58.937Z,16.70
2018-07-22T05:25:27.150Z,16.70
2018-07-22T05:30:23.337Z,16.70
2018-07-22T05:32:51.525Z,16.70
2018-07-22T05:35:19.731Z,16.60
2018-07-22T05:37:47.917Z,16.60
2018-07-22T05:40:16.109Z,16.60
2018-07-22T05:42:44.292Z,16.60
2018-07-22T05:45:12.485Z,16.60
2018-07-22T05:47:40.665Z,16.60
2018-07-22T05:50:08.864Z,16.60
2018-07-22T05:52:37.085Z,16.60
2018-07-22T05:55:05.405Z,16.60
2018-07-22T05:57:33.614Z,16.70
2018-07-22T06:00:01.789Z,16.70
2018-07-22T06:02:29.998Z,16.80
2018-07-22T06:04:58.174Z,16.80
2018-07-22T06:07:26.464Z,16.80
2018-07-22T06:09:54.645Z,16.80
2018-07-22T06:12:22.833Z,16.80
2018-07-22T06:14:51.037Z,16.80
2018-07-22T06:17:19.262Z,16.80
2018-07-22T06:19:47.513Z,16.80
2018-07-22T06:22:15.715Z,16.80
2018-07-22T06:24:43.932Z,16.80
2018-07-22T06:27:12.130Z,16.80
2018-07-22T06:29:40.337Z,16.80
2018-07-22T06:32:08.525Z,16.80
2018-07-22T06:34:36.734Z,16.80
2018-07-22T06:37:04.926Z,16.90
2018-07-22T06:39:33.117Z,16.80
2018-07-22T06:42:01.329Z,16.90
2018-07-22T06:44:29.505Z,16.90
2018-07-22T06:46:57.751Z,16.90
2018-07-22T06:49:25.961Z,17.00
2018-07-22T06:51:54.157Z,17.00
2018-07-22T06:54:22.450Z,17.00
2018-07-22T06:56:50.604Z,17.00
2018-07-22T06:59:18.842Z,17.00
2018-07-22T07:01:47.031Z,17.00
2018-07-22T07:04:15.212Z,16.90
2018-07-22T07:06:43.417Z,16.90
2018-07-22T07:09:12.342Z,16.90
2018-07-22T07:11:40.854Z,17.00
2018-07-22T07:14:09.521Z,16.90
2018-07-22T07:16:38.105Z,16.90
2018-07-22T07:19:06.485Z,16.80
2018-07-22T07:21:34.656Z,16.80
2018-07-22T07:24:02.861Z,16.80
2018-07-22T07:26:31.049Z,16.80
2018-07-22T07:28:59.236Z,16.80
2018-07-22T07:31:27.420Z,16.80
2018-07-22T07:33:55.612Z,16.90
2018-07-22T07:36:23.810Z,16.90
2018-07-22T07:38:51.988Z,16.90
2018-07-22T07:41:20.280Z,17.00
2018-07-22T07:43:48.461Z,17.00
2018-07-22T07:46:16.652Z,17.10
2018-07-22T07:48:44.857Z,17.30
2018-07-22T07:51:13.065Z,17.40
2018-07-22T07:53:41.266Z,17.40
2018-07-22T07:56:09.466Z,17.30
2018-07-22T07:58:38.602Z,17.30
2018-07-22T08:03:34.758Z,17.20
2018-07-22T08:06:03.060Z,17.10
2018-07-22T08:08:31.621Z,17.10
2018-07-22T08:10:59.879Z,17.10
2018-07-22T08:13:28.072Z,17.10
2018-07-22T08:15:56.665Z,17.20
2018-07-22T08:18:24.862Z,17.30
2018-07-22T08:20:53.071Z,17.40
2018-07-22T08:23:21.274Z,17.50
2018-07-22T08:25:49.457Z,17.70
2018-07-22T08:28:29.969Z,17.80
2018-07-22T08:30:58.153Z,17.90
2018-07-22T08:33:26.478Z,17.80
2018-07-22T08:35:55.273Z,17.90
2018-07-22T08:38:23.456Z,17.90
2018-07-22T08:40:51.640Z,18.00
2018-07-22T08:43:19.990Z,18.00
2018-07-22T08:45:48.173Z,18.00
2018-07-22T08:48:16.469Z,18.10
2018-07-22T08:50:44.662Z,18.10
2018-07-22T08:53:12.871Z,18.10
2018-07-22T08:55:41.041Z,18.20
2018-07-22T08:58:09.229Z,18.20
2018-07-22T09:00:38.450Z,18.30
2018-07-22T09:03:06.657Z,18.40
2018-07-22T09:05:34.900Z,18.50
2018-07-22T09:08:03.104Z,18.70
2018-07-22T09:10:31.341Z,18.80
2018-07-22T09:12:59.738Z,18.80
2018-07-22T09:15:27.927Z,18.90
2018-07-22T09:17:56.188Z,19.00
2018-07-22T09:20:24.309Z,19.10
2018-07-22T09:22:52.515Z,19.00
2018-07-22T09:27:48.649Z,19.10
2018-07-22T09:30:16.868Z,19.20
2018-07-22T09:32:45.124Z,19.20
2018-07-22T09:35:13.424Z,19.40
2018-07-22T09:37:41.614Z,19.40
2018-07-22T09:40:09.805Z,19.30
2018-07-22T09:42:38.003Z,19.30
2018-07-22T09:45:06.188Z,19.30
2018-07-22T09:47:34.391Z,19.20
2018-07-22T09:50:02.601Z,19.10
2018-07-22T09:52:30.799Z,19.10
2018-07-22T09:54:58.989Z,19.10
2018-07-22T09:59:55.249Z,19.10
2018-07-22T10:02:23.441Z,19.10
2018-07-22T10:04:51.684Z,19.10
2018-07-22T10:07:19.865Z,19.30
2018-07-22T10:09:48.065Z,19.30
2018-07-22T10:12:16.261Z,19.20
2018-07-22T10:14:44.608Z,19.30
2018-07-22T10:17:12.661Z,19.30
2018-07-22T10:19:40.858Z,19.20
2018-07-22T10:22:09.041Z,19.10
2018-07-22T10:24:37.330Z,19.10
2018-07-22T10:27:05.526Z,19.00
2018-07-22T10:29:33.709Z,18.80
2018-07-22T10:32:01.929Z,18.70
2018-07-22T10:34:30.113Z,18.60
2018-07-22T10:36:58.293Z,18.40
2018-07-22T10:39:26.512Z,18.30
2018-07-22T10:41:54.701Z,18.40
2018-07-22T10:44:22.891Z,18.40
2018-07-22T10:46:51.080Z,18.40
2018-07-22T10:49:19.272Z,18.40
2018-07-22T10:51:47.456Z,18.40
2018-07-22T10:54:15.641Z,18.40
2018-07-22T10:56:43.841Z,18.40
2018-07-22T10:59:12.030Z,18.40
2018-07-22T11:01:40.222Z,18.20
2018-07-22T11:04:08.433Z,18.20
2018-07-22T11:06:36.641Z,18.10
2018-07-22T11:09:07.146Z,18.10
2018-07-22T11:11:35.470Z,18.10
2018-07-22T11:14:03.754Z,18.10
2018-07-22T11:16:31.962Z,18.20
2018-07-22T11:19:00.300Z,18.20
2018-07-22T11:21:28.510Z,18.30
2018-07-22T11:23:56.709Z,18.40
2018-07-22T11:26:24.917Z,18.40
2018-07-22T11:28:53.177Z,18.40
2018-07-22T11:31:21.376Z,18.30
2018-07-22T11:33:49.582Z,18.20
2018-07-22T11:38:45.738Z,18.10
2018-07-22T11:41:14.038Z,18.00
2018-07-22T11:43:42.233Z,17.90
2018-07-22T11:46:10.466Z,17.90
2018-07-22T11:48:38.665Z,17.80
2018-07-22T11:51:06.985Z,17.80
2018-07-22T11:53:35.177Z,17.80
2018-07-22T11:56:03.377Z,17.80
2018-07-22T11:58:31.574Z,17.80
2018-07-22T12:00:59.774Z,17.80
2018-07-22T12:03:27.978Z,17.80
2018-07-22T12:05:56.232Z,17.90
2018-07-22T12:08:24.429Z,17.90
2018-07-22T12:10:52.625Z,17.90
2018-07-22T12:13:20.930Z,17.80
2018-07-22T12:15:49.118Z,17.70
2018-07-22T12:18:17.317Z,17.60
2018-07-22T12:20:45.519Z,17.50
2018-07-22T12:23:13.725Z,17.40
2018-07-22T12:25:42.013Z,17.30
2018-07-22T12:28:10.256Z,17.20
2018-07-22T12:30:38.580Z,17.00
2018-07-22T12:33:06.796Z,16.90
2018-07-22T12:35:35.003Z,16.90
2018-07-22T12:38:03.215Z,16.80
2018-07-22T12:40:31.413Z,16.80
2018-07-22T12:42:59.735Z,16.70
2018-07-22T12:45:28.057Z,16.70
2018-07-22T12:47:56.421Z,16.70
2018-07-22T12:50:24.732Z,16.80
2018-07-22T12:52:52.981Z,16.80
2018-07-22T12:55:21.222Z,16.80
2018-07-22T12:57:49.477Z,16.80
2018-07-22T13:00:17.694Z,16.90
2018-07-22T13:02:45.935Z,16.90
2018-07-22T13:05:14.575Z,16.90
2018-07-22T13:07:43.006Z,17.00
2018-07-22T13:10:11.392Z,17.00
2018-07-22T13:12:39.646Z,17.00
2018-07-22T13:15:08.567Z,17.00
2018-07-22T13:17:36.800Z,17.10
2018-07-22T13:20:05.151Z,17.20
2018-07-22T13:22:33.435Z,17.30
2018-07-22T13:25:01.705Z,17.40
2018-07-22T13:27:30.035Z,17.50
2018-07-22T13:29:58.245Z,17.60
2018-07-22T13:32:26.462Z,17.70
2018-07-22T13:34:54.689Z,17.70
2018-07-22T13:37:22.896Z,17.80
2018-07-22T13:39:51.100Z,17.80
2018-07-22T13:42:19.328Z,17.80
2018-07-22T13:44:47.528Z,17.80
2018-07-22T13:47:15.725Z,17.80
2018-07-22T13:49:43.946Z,17.80
2018-07-22T13:52:12.188Z,17.70
2018-07-22T13:54:40.393Z,17.70
2018-07-22T13:57:08.867Z,17.60
2018-07-22T13:59:37.094Z,17.60
2018-07-22T14:02:05.439Z,17.60
2018-07-22T14:04:33.667Z,17.80
2018-07-22T14:09:29.857Z,18.10
2018-07-22T14:11:58.195Z,18.30
2018-07-22T14:14:26.407Z,18.50
2018-07-22T14:16:54.634Z,18.70
2018-07-22T14:19:22.847Z,18.80
2018-07-22T14:21:51.153Z,19.00
2018-07-22T14:24:19.370Z,18.90
2018-07-22T14:29:15.672Z,19.00
2018-07-22T14:31:43.903Z,19.10
2018-07-22T14:34:12.127Z,19.00
2018-07-22T14:36:40.347Z,19.00
2018-07-22T14:39:10.416Z,19.00
2018-07-22T14:41:38.613Z,19.00
2018-07-22T14:44:06.852Z,18.80
2018-07-22T14:46:35.090Z,18.70
2018-07-22T14:49:03.329Z,18.50
2018-07-22T14:51:31.531Z,18.40
2018-07-22T14:53:59.961Z,18.20
2018-07-22T14:56:28.170Z,18.20
2018-07-22T14:58:56.401Z,18.10
2018-07-22T15:01:24.589Z,18.10
2018-07-22T15:03:52.809Z,18.10
2018-07-22T15:06:21.017Z,18.00
2018-07-22T15:08:49.237Z,18.10
2018-07-22T15:11:17.466Z,18.20
2018-07-22T15:13:45.674Z,18.20
2018-07-22T15:16:13.975Z,18.20
2018-07-22T15:18:42.206Z,18.30
2018-07-22T15:21:10.464Z,18.30
2018-07-22T15:23:38.691Z,18.40
2018-07-22T15:26:06.932Z,18.50
2018-07-22T15:28:35.202Z,18.60
2018-07-22T15:31:03.417Z,18.70
2018-07-22T15:33:31.672Z,18.60
2018-07-22T15:35:59.893Z,18.70
2018-07-22T15:38:28.276Z,18.80
2018-07-22T15:40:56.508Z,18.70
2018-07-22T15:43:24.747Z,18.80
2018-07-22T15:45:52.983Z,18.80
2018-07-22T15:48:21.249Z,18.80
2018-07-22T15:50:49.517Z,18.80
2018-07-22T15:53:17.760Z,18.80
2018-07-22T15:55:46.084Z,18.80
2018-07-22T15:58:14.290Z,18.70
2018-07-22T16:00:42.539Z,18.70
2018-07-22T16:03:11.430Z,18.70
2018-07-22T16:05:39.642Z,18.70
2018-07-22T16:08:07.880Z,18.60
2018-07-22T16:10:36.138Z,18.60
2018-07-22T16:13:04.422Z,18.50
2018-07-22T16:15:32.864Z,18.50
2018-07-22T16:18:01.122Z,18.50
2018-07-22T16:20:29.459Z,18.50
2018-07-22T16:22:57.692Z,18.60
2018-07-22T16:25:25.922Z,18.60
2018-07-22T16:27:54.184Z,18.60
2018-07-22T16:30:22.463Z,18.60
2018-07-22T16:32:51.058Z,18.60
2018-07-22T16:35:19.333Z,18.60
2018-07-22T16:37:47.545Z,18.60
2018-07-22T16:40:15.792Z,18.60
2018-07-22T16:42:44.016Z,18.60
2018-07-22T16:45:14.818Z,18.60
2018-07-22T16:47:43.045Z,18.60
2018-07-22T16:50:11.266Z,18.60
2018-07-22T16:52:39.497Z,18.70
2018-07-22T16:55:07.724Z,18.70
2018-07-22T16:57:35.913Z,18.70
2018-07-22T17:00:05.567Z,18.70
2018-07-22T17:02:33.780Z,18.70
2018-07-22T17:05:01.998Z,18.80
2018-07-22T17:07:30.218Z,18.70
2018-07-22T17:09:58.422Z,18.70
2018-07-22T17:12:26.647Z,18.70
2018-07-22T17:14:54.877Z,18.70
2018-07-22T17:17:23.076Z,18.70
2018-07-22T17:19:51.305Z,18.70
2018-07-22T17:22:19.561Z,18.60
2018-07-22T17:24:47.789Z,18.60
2018-07-22T17:27:16.008Z,18.50
2018-07-22T17:29:44.232Z,18.50
2018-07-22T17:32:12.446Z,18.40
2018-07-22T17:34:40.670Z,18.40
2018-07-22T17:37:08.897Z,18.30
2018-07-22T17:39:37.118Z,18.30
2018-07-22T17:42:05.389Z,18.20
2018-07-22T17:44:33.636Z,18.20
2018-07-22T17:47:01.842Z,18.10
2018-07-22T17:49:30.102Z,18.10
2018-07-22T17:51:58.320Z,18.10
2018-07-22T17:54:26.521Z,18.10
2018-07-22T17:56:54.829Z,18.00
2018-07-22T17:59:23.060Z,18.00
2018-07-22T18:01:51.249Z,18.00
2018-07-22T18:04:19.460Z,17.90
2018-07-22T18:06:47.735Z,17.90
2018-07-22T18:09:15.929Z,17.90
2018-07-22T18:11:44.148Z,17.90
2018-07-22T18:14:12.429Z,17.80
2018-07-22T18:16:40.592Z,17.80
2018-07-22T18:19:08.845Z,17.70
2018-07-22T18:21:37.186Z,17.70
2018-07-22T18:24:05.445Z,17.70
2018-07-22T18:26:33.669Z,17.70
2018-07-22T18:29:02.722Z,17.70
2018-07-22T18:33:58.889Z,17.60
2018-07-22T18:36:27.101Z,17.60
2018-07-22T18:38:55.311Z,17.60
2018-07-22T18:41:23.538Z,17.50
2018-07-22T18:43:51.741Z,17.60
2018-07-22T18:46:19.963Z,17.50
2018-07-22T18:48:48.173Z,17.60
2018-07-22T18:51:16.464Z,17.50
2018-07-22T18:53:44.669Z,17.50
2018-07-22T18:58:40.872Z,17.40
2018-07-22T19:01:09.126Z,17.40
2018-07-22T19:03:37.385Z,17.40
2018-07-22T19:06:05.596Z,17.40
2018-07-22T19:08:33.828Z,17.40
2018-07-22T19:11:02.061Z,17.40
2018-07-22T19:13:30.303Z,17.40
2018-07-22T19:15:58.519Z,17.30
2018-07-22T19:18:26.731Z,17.30
2018-07-22T19:20:54.956Z,17.30
2018-07-22T19:23:23.136Z,17.30
2018-07-22T19:25:51.725Z,17.30
2018-07-22T19:28:19.960Z,17.30
2018-07-22T19:30:48.197Z,17.20
2018-07-22T19:33:16.854Z,17.20
2018-07-22T19:35:45.922Z,17.20
2018-07-22T19:38:14.129Z,17.20
2018-07-22T19:40:42.331Z,17.20
2018-07-22T19:43:10.589Z,17.20
2018-07-22T19:45:38.805Z,17.20
2018-07-22T19:48:07.115Z,17.20
2018-07-22T19:50:35.993Z,17.20
2018-07-22T19:53:04.666Z,17.20
2018-07-22T19:55:33.258Z,17.10
2018-07-22T19:58:01.486Z,17.10
2018-07-22T20:00:30.052Z,17.10
2018-07-22T20:02:58.283Z,17.10
2018-07-22T20:05:26.506Z,17.10
2018-07-22T20:07:54.729Z,17.10
2018-07-22T20:10:23.353Z,17.00
2018-07-22T20:12:51.633Z,17.00
2018-07-22T20:15:20.629Z,17.10
2018-07-22T20:17:48.833Z,17.00
2018-07-22T20:20:17.025Z,17.10
2018-07-22T20:22:46.474Z,17.10
2018-07-22T20:25:14.681Z,17.20
2018-07-22T20:27:43.561Z,17.10
2018-07-22T20:30:12.219Z,17.10
2018-07-22T20:32:40.401Z,17.00
2018-07-22T20:35:08.622Z,17.00
2018-07-22T20:37:36.844Z,16.90
2018-07-22T20:40:05.378Z,16.90
2018-07-22T20:42:33.598Z,16.90
2018-07-22T20:45:01.901Z,16.90
2018-07-22T20:47:30.567Z,16.80
2018-07-22T20:49:58.778Z,16.80
2018-07-22T20:52:27.001Z,16.80
2018-07-22T20:54:55.244Z,16.80
2018-07-22T20:57:23.473Z,16.80
2018-07-22T20:59:51.694Z,16.80
2018-07-22T21:02:19.914Z,16.80
2018-07-22T21:04:48.266Z,16.80
2018-07-22T21:07:16.490Z,16.80
2018-07-22T21:09:44.718Z,16.80
2018-07-22T21:13:22.873Z,16.80
2018-07-22T21:15:51.217Z,16.80
2018-07-22T21:18:19.440Z,16.70
2018-07-22T21:20:47.661Z,16.70
2018-07-22T21:23:15.907Z,16.70
2018-07-22T21:25:44.113Z,16.70
2018-07-22T21:28:12.324Z,16.70
2018-07-22T21:30:40.538Z,16.70
2018-07-22T21:33:09.594Z,16.60
2018-07-22T21:35:37.825Z,16.60
2018-07-22T21:38:06.067Z,16.60
2018-07-22T21:40:34.265Z,16.50
2018-07-22T21:43:02.484Z,16.50
2018-07-22T21:45:31.704Z,16.50
2018-07-22T21:47:59.993Z,16.40
2018-07-22T21:50:28.193Z,16.40
2018-07-22T21:52:56.402Z,16.40
2018-07-22T21:55:24.641Z,16.40
2018-07-22T21:57:52.862Z,16.40
2018-07-22T22:00:56.035Z,16.40
2018-07-22T22:03:24.294Z,16.40
2018-07-22T22:05:52.542Z,16.40
2018-07-22T22:08:20.750Z,16.40
2018-07-22T22:10:48.964Z,16.40
2018-07-22T22:13:17.181Z,16.40
2018-07-22T22:15:45.392Z,16.40
2018-07-22T22:18:13.607Z,16.40
2018-07-22T22:20:41.824Z,16.40
2018-07-22T22:23:10.026Z,16.40
2018-07-22T22:25:38.239Z,16.40
2018-07-22T22:28:06.459Z,16.40
2018-07-22T22:30:34.685Z,16.40
2018-07-22T22:33:02.970Z,16.40
2018-07-22T22:35:31.180Z,16.40
2018-07-22T22:37:59.373Z,16.50
2018-07-22T22:40:27.631Z,16.40
2018-07-22T22:42:55.826Z,16.40
2018-07-22T22:45:24.673Z,16.50
2018-07-22T22:47:52.865Z,16.50
2018-07-22T22:50:21.073Z,16.40
2018-07-22T22:52:49.279Z,16.40
2018-07-22T22:55:17.521Z,16.40
2018-07-22T22:57:57.019Z,16.40
2018-07-22T23:00:25.283Z,16.40
2018-07-22T23:02:54.138Z,16.40
2018-07-22T23:05:22.452Z,16.40
2018-07-22T23:07:50.752Z,16.30
2018-07-22T23:10:18.974Z,16.40
2018-07-22T23:12:47.250Z,16.40
2018-07-22T23:15:15.475Z,16.40
2018-07-22T23:17:43.698Z,16.40
2018-07-22T23:20:11.897Z,16.40
2018-07-22T23:22:40.173Z,16.40
2018-07-22T23:25:08.390Z,16.40
2018-07-22T23:27:36.626Z,16.40
2018-07-22T23:30:05.092Z,16.40
2018-07-22T23:32:33.313Z,16.50
2018-07-22T23:35:01.567Z,16.50
2018-07-22T23:37:29.781Z,16.50
2018-07-22T23:39:57.981Z,16.50
2018-07-22T23:42:26.181Z,16.50
2018-07-22T23:44:54.373Z,16.50
2018-07-22T23:47:22.653Z,16.50
2018-07-22T23:49:50.842Z,16.50
2018-07-22T23:52:19.040Z,16.50
2018-07-22T23:54:47.229Z,16.50
2018-07-22T23:57:15.424Z,16.50
2018-07-22T23:59:43.619Z,16.50
